sensor_id;sensor_type;location;lat;lon;timestamp;pressure;altitude;pressure_sealevel;temperature;humidity
72486;BME280;60509;47.308;-122.428;2023-05-01T00:01:52;100302.51;;;17.55;28.50
72486;BME280;60509;47.308;-122.428;2023-05-01T00:04:18;100303.39;;;17.85;28.31
72486;BME280;60509;47.308;-122.428;2023-05-01T00:06:44;100302.63;;;18.01;28.43
72486;BME280;60509;47.308;-122.428;2023-05-01T00:09:10;100300.26;;;17.70;28.58
72486;BME280;60509;47.308;-122.428;2023-05-01T00:11:36;100298.32;;;17.81;28.58
72486;BME280;60509;47.308;-122.428;2023-05-01T00:14:01;100296.95;;;15.85;29.24
72486;BME280;60509;47.308;-122.428;2023-05-01T00:16:27;100297.51;;;15.82;28.66
72486;BME280;60509;47.308;-122.428;2023-05-01T00:18:53;100294.48;;;15.07;29.04
72486;BME280;60509;47.308;-122.428;2023-05-01T00:21:19;100294.10;;;15.92;29.29
72486;BME280;60509;47.308;-122.428;2023-05-01T00:23:45;100288.31;;;17.07;28.33
72486;BME280;60509;47.308;-122.428;2023-05-01T00:26:11;100287.44;;;17.11;28.24
72486;BME280;60509;47.308;-122.428;2023-05-01T00:28:37;100286.86;;;17.37;28.10
72486;BME280;60509;47.308;-122.428;2023-05-01T00:31:03;100279.43;;;17.52;28.03
72486;BME280;60509;47.308;-122.428;2023-05-01T00:33:29;100281.52;;;17.88;27.89
72486;BME280;60509;47.308;-122.428;2023-05-01T00:35:55;100278.85;;;17.82;27.95
72486;BME280;60509;47.308;-122.428;2023-05-01T00:38:21;100273.51;;;17.75;27.96
72486;BME280;60509;47.308;-122.428;2023-05-01T00:40:47;100272.13;;;18.24;27.98
72486;BME280;60509;47.308;-122.428;2023-05-01T00:43:13;100268.47;;;17.93;28.10
72486;BME280;60509;47.308;-122.428;2023-05-01T00:45:40;100267.53;;;16.94;28.27
72486;BME280;60509;47.308;-122.428;2023-05-01T00:48:05;100264.88;;;15.97;28.53
72486;BME280;60509;47.308;-122.428;2023-05-01T00:50:30;100264.95;;;14.91;29.97
72486;BME280;60509;47.308;-122.428;2023-05-01T00:52:56;100260.32;;;16.31;28.84
72486;BME280;60509;47.308;-122.428;2023-05-01T00:55:23;100257.52;;;17.30;28.05
72486;BME280;60509;47.308;-122.428;2023-05-01T00:57:48;100255.79;;;17.50;28.02
72486;BME280;60509;47.308;-122.428;2023-05-01T01:00:14;100256.06;;;17.47;27.96
72486;BME280;60509;47.308;-122.428;2023-05-01T01:02:40;100258.89;;;17.75;27.88
72486;BME280;60509;47.308;-122.428;2023-05-01T01:05:06;100260.01;;;18.06;27.78
72486;BME280;60509;47.308;-122.428;2023-05-01T01:07:39;100257.05;;;17.93;28.00
72486;BME280;60509;47.308;-122.428;2023-05-01T01:10:04;100253.05;;;17.94;28.19
72486;BME280;60509;47.308;-122.428;2023-05-01T01:12:29;100248.67;;;17.51;28.49
72486;BME280;60509;47.308;-122.428;2023-05-01T01:14:52;100245.11;;;17.97;28.51
72486;BME280;60509;47.308;-122.428;2023-05-01T01:17:22;100248.81;;;17.66;28.51
72486;BME280;60509;47.308;-122.428;2023-05-01T01:20:31;100247.70;;;17.45;28.42
72486;BME280;60509;47.308;-122.428;2023-05-01T01:22:11;100247.17;;;15.69;29.17
72486;BME280;60509;47.308;-122.428;2023-05-01T01:24:48;100248.09;;;15.09;29.38
72486;BME280;60509;47.308;-122.428;2023-05-01T01:27:18;100245.64;;;16.34;29.21
72486;BME280;60509;47.308;-122.428;2023-05-01T01:30:12;100234.65;;;17.48;28.16
72486;BME280;60509;47.308;-122.428;2023-05-01T01:32:01;100236.41;;;17.61;28.12
72486;BME280;60509;47.308;-122.428;2023-05-01T01:34:21;100240.20;;;17.07;28.19
72486;BME280;60509;47.308;-122.428;2023-05-01T01:36:50;100241.25;;;17.88;27.92
72486;BME280;60509;47.308;-122.428;2023-05-01T01:39:13;100243.39;;;17.82;27.92
72486;BME280;60509;47.308;-122.428;2023-05-01T01:41:35;100240.58;;;17.62;28.14
72486;BME280;60509;47.308;-122.428;2023-05-01T01:44:05;100238.03;;;17.37;28.21
72486;BME280;60509;47.308;-122.428;2023-05-01T01:46:27;100240.24;;;17.30;28.15
72486;BME280;60509;47.308;-122.428;2023-05-01T01:48:54;100239.11;;;17.48;28.09
72486;BME280;60509;47.308;-122.428;2023-05-01T01:51:20;100232.67;;;18.06;27.96
72486;BME280;60509;47.308;-122.428;2023-05-01T01:53:48;100235.57;;;17.63;28.07
72486;BME280;60509;47.308;-122.428;2023-05-01T01:56:11;100231.51;;;18.12;28.09
72486;BME280;60509;47.308;-122.428;2023-05-01T01:58:37;100229.98;;;18.06;28.09
72486;BME280;60509;47.308;-122.428;2023-05-01T02:01:02;100233.49;;;17.90;28.27
72486;BME280;60509;47.308;-122.428;2023-05-01T02:03:28;100230.18;;;18.00;28.18
72486;BME280;60509;47.308;-122.428;2023-05-01T02:05:54;100231.16;;;17.62;28.13
72486;BME280;60509;47.308;-122.428;2023-05-01T02:08:20;100231.58;;;17.78;28.11
72486;BME280;60509;47.308;-122.428;2023-05-01T02:10:46;100227.36;;;17.38;28.08
72486;BME280;60509;47.308;-122.428;2023-05-01T02:13:13;100230.82;;;15.43;28.86
72486;BME280;60509;47.308;-122.428;2023-05-01T02:15:37;100232.46;;;15.40;30.08
72486;BME280;60509;47.308;-122.428;2023-05-01T02:18:04;100229.11;;;16.96;28.49
72486;BME280;60509;47.308;-122.428;2023-05-01T02:20:30;100229.34;;;17.28;28.29
72486;BME280;60509;47.308;-122.428;2023-05-01T02:22:55;100231.10;;;17.54;27.93
72486;BME280;60509;47.308;-122.428;2023-05-01T02:25:21;100227.79;;;17.69;27.86
72486;BME280;60509;47.308;-122.428;2023-05-01T02:27:51;100227.08;;;17.90;27.74
72486;BME280;60509;47.308;-122.428;2023-05-01T02:30:13;100231.82;;;17.95;27.69
72486;BME280;60509;47.308;-122.428;2023-05-01T02:32:38;100229.57;;;17.77;27.69
72486;BME280;60509;47.308;-122.428;2023-05-01T02:35:05;100231.77;;;18.35;27.78
72486;BME280;60509;47.308;-122.428;2023-05-01T02:37:31;100234.90;;;18.23;27.67
72486;BME280;60509;47.308;-122.428;2023-05-01T02:39:56;100232.19;;;17.58;28.06
72486;BME280;60509;47.308;-122.428;2023-05-01T02:42:24;100229.37;;;18.03;27.84
72486;BME280;60509;47.308;-122.428;2023-05-01T02:44:56;100230.57;;;17.85;28.17
72486;BME280;60509;47.308;-122.428;2023-05-01T02:47:17;100231.22;;;17.69;27.98
72486;BME280;60509;47.308;-122.428;2023-05-01T02:49:40;100231.69;;;17.99;28.10
72486;BME280;60509;47.308;-122.428;2023-05-01T02:52:06;100230.39;;;17.51;28.22
72486;BME280;60509;47.308;-122.428;2023-05-01T02:54:32;100229.37;;;17.53;28.28
72486;BME280;60509;47.308;-122.428;2023-05-01T02:56:57;100226.29;;;17.63;28.13
72486;BME280;60509;47.308;-122.428;2023-05-01T02:59:23;100223.67;;;17.97;28.15
72486;BME280;60509;47.308;-122.428;2023-05-01T03:01:49;100226.41;;;17.79;28.17
72486;BME280;60509;47.308;-122.428;2023-05-01T03:04:15;100221.33;;;17.87;28.17
72486;BME280;60509;47.308;-122.428;2023-05-01T03:06:41;100221.97;;;17.88;28.00
72486;BME280;60509;47.308;-122.428;2023-05-01T03:09:07;100222.91;;;17.77;27.91
72486;BME280;60509;47.308;-122.428;2023-05-01T03:11:33;100220.43;;;17.77;27.69
72486;BME280;60509;47.308;-122.428;2023-05-01T03:13:58;100226.47;;;16.45;27.97
72486;BME280;60509;47.308;-122.428;2023-05-01T03:16:24;100230.43;;;15.17;29.98
72486;BME280;60509;47.308;-122.428;2023-05-01T03:18:50;100228.27;;;17.09;28.28
72486;BME280;60509;47.308;-122.428;2023-05-01T03:21:21;100223.89;;;17.24;27.68
72486;BME280;60509;47.308;-122.428;2023-05-01T03:23:42;100225.28;;;17.02;27.63
72486;BME280;60509;47.308;-122.428;2023-05-01T03:26:08;100228.34;;;17.63;27.56
72486;BME280;60509;47.308;-122.428;2023-05-01T03:28:34;100231.28;;;17.38;27.53
72486;BME280;60509;47.308;-122.428;2023-05-01T03:31:00;100236.73;;;17.61;27.39
72486;BME280;60509;47.308;-122.428;2023-05-01T03:33:27;100238.28;;;17.28;27.69
72486;BME280;60509;47.308;-122.428;2023-05-01T03:35:59;100240.68;;;17.50;27.57
72486;BME280;60509;47.308;-122.428;2023-05-01T03:38:17;100243.81;;;17.93;27.54
72486;BME280;60509;47.308;-122.428;2023-05-01T03:40:44;100247.12;;;17.63;27.69
72486;BME280;60509;47.308;-122.428;2023-05-01T03:43:09;100250.32;;;17.74;27.62
72486;BME280;60509;47.308;-122.428;2023-05-01T03:45:35;100250.30;;;17.54;27.54
72486;BME280;60509;47.308;-122.428;2023-05-01T03:48:01;100253.94;;;17.70;27.66
72486;BME280;60509;47.308;-122.428;2023-05-01T03:50:27;100255.00;;;17.66;27.57
72486;BME280;60509;47.308;-122.428;2023-05-01T03:52:53;100250.31;;;17.36;27.65
72486;BME280;60509;47.308;-122.428;2023-05-01T03:55:19;100252.44;;;17.60;27.56
72486;BME280;60509;47.308;-122.428;2023-05-01T03:57:45;100256.19;;;18.08;27.63
72486;BME280;60509;47.308;-122.428;2023-05-01T04:00:12;100258.81;;;17.61;27.46
72486;BME280;60509;47.308;-122.428;2023-05-01T04:02:37;100260.78;;;17.68;27.39
72486;BME280;60509;47.308;-122.428;2023-05-01T04:05:02;100266.47;;;17.77;27.46
72486;BME280;60509;47.308;-122.428;2023-05-01T04:07:28;100271.42;;;17.56;27.48
72486;BME280;60509;47.308;-122.428;2023-05-01T04:09:54;100270.18;;;17.49;27.54
72486;BME280;60509;47.308;-122.428;2023-05-01T04:12:20;100269.79;;;17.58;27.54
72486;BME280;60509;47.308;-122.428;2023-05-01T04:14:46;100273.98;;;17.69;27.50
72486;BME280;60509;47.308;-122.428;2023-05-01T04:17:12;100280.42;;;17.72;27.50
72486;BME280;60509;47.308;-122.428;2023-05-01T04:19:38;100279.31;;;17.67;27.39
72486;BME280;60509;47.308;-122.428;2023-05-01T04:22:04;100280.49;;;17.51;27.52
72486;BME280;60509;47.308;-122.428;2023-05-01T04:24:30;100284.31;;;17.67;27.48
72486;BME280;60509;47.308;-122.428;2023-05-01T04:26:55;100285.51;;;17.48;27.35
72486;BME280;60509;47.308;-122.428;2023-05-01T04:29:21;100285.53;;;17.65;27.15
72486;BME280;60509;47.308;-122.428;2023-05-01T04:31:47;100286.37;;;17.30;27.30
72486;BME280;60509;47.308;-122.428;2023-05-01T04:34:13;100286.65;;;17.52;27.24
72486;BME280;60509;47.308;-122.428;2023-05-01T04:36:39;100288.30;;;17.73;27.11
72486;BME280;60509;47.308;-122.428;2023-05-01T04:39:05;100292.83;;;17.66;27.06
72486;BME280;60509;47.308;-122.428;2023-05-01T04:41:31;100296.50;;;17.79;27.00
72486;BME280;60509;47.308;-122.428;2023-05-01T04:43:57;100298.18;;;17.15;27.28
72486;BME280;60509;47.308;-122.428;2023-05-01T04:46:23;100299.98;;;17.35;27.10
72486;BME280;60509;47.308;-122.428;2023-05-01T04:48:48;100302.83;;;17.70;27.04
72486;BME280;60509;47.308;-122.428;2023-05-01T04:51:14;100301.46;;;17.81;27.08
72486;BME280;60509;47.308;-122.428;2023-05-01T04:53:40;100301.96;;;17.83;27.09
72486;BME280;60509;47.308;-122.428;2023-05-01T04:56:06;100301.37;;;17.53;27.33
72486;BME280;60509;47.308;-122.428;2023-05-01T04:58:32;100302.03;;;17.58;27.18
72486;BME280;60509;47.308;-122.428;2023-05-01T05:00:58;100299.35;;;17.33;27.48
72486;BME280;60509;47.308;-122.428;2023-05-01T05:03:24;100296.96;;;17.02;27.68
72486;BME280;60509;47.308;-122.428;2023-05-01T05:05:50;100295.43;;;17.04;27.66
72486;BME280;60509;47.308;-122.428;2023-05-01T05:08:16;100299.18;;;17.58;27.67
72486;BME280;60509;47.308;-122.428;2023-05-01T05:10:41;100302.59;;;17.22;27.65
72486;BME280;60509;47.308;-122.428;2023-05-01T05:13:07;100300.15;;;17.24;27.83
72486;BME280;60509;47.308;-122.428;2023-05-01T05:15:33;100297.40;;;17.45;27.76
72486;BME280;60509;47.308;-122.428;2023-05-01T05:17:59;100295.46;;;17.62;27.62
72486;BME280;60509;47.308;-122.428;2023-05-01T05:20:25;100297.94;;;16.65;27.58
72486;BME280;60509;47.308;-122.428;2023-05-01T05:22:51;100303.61;;;17.41;27.41
72486;BME280;60509;47.308;-122.428;2023-05-01T05:25:17;100307.34;;;17.45;27.49
72486;BME280;60509;47.308;-122.428;2023-05-01T05:27:43;100311.19;;;17.70;27.24
72486;BME280;60509;47.308;-122.428;2023-05-01T05:30:09;100311.20;;;17.12;27.39
72486;BME280;60509;47.308;-122.428;2023-05-01T05:32:34;100308.71;;;17.35;27.33
72486;BME280;60509;47.308;-122.428;2023-05-01T05:35:00;100310.00;;;17.38;27.35
72486;BME280;60509;47.308;-122.428;2023-05-01T05:37:26;100305.77;;;17.15;27.18
72486;BME280;60509;47.308;-122.428;2023-05-01T05:39:52;100301.99;;;17.31;27.43
72486;BME280;60509;47.308;-122.428;2023-05-01T05:42:18;100305.34;;;17.03;27.26
72486;BME280;60509;47.308;-122.428;2023-05-01T05:44:44;100305.66;;;17.03;27.21
72486;BME280;60509;47.308;-122.428;2023-05-01T05:47:10;100302.83;;;17.18;27.13
72486;BME280;60509;47.308;-122.428;2023-05-01T05:49:36;100302.41;;;17.33;27.11
72486;BME280;60509;47.308;-122.428;2023-05-01T05:52:02;100301.08;;;16.89;27.27
72486;BME280;60509;47.308;-122.428;2023-05-01T05:54:27;100301.35;;;17.05;27.12
72486;BME280;60509;47.308;-122.428;2023-05-01T05:56:53;100299.28;;;17.52;27.02
72486;BME280;60509;47.308;-122.428;2023-05-01T05:59:19;100294.60;;;17.45;27.13
72486;BME280;60509;47.308;-122.428;2023-05-01T06:01:45;100291.67;;;17.28;27.04
72486;BME280;60509;47.308;-122.428;2023-05-01T06:04:11;100291.08;;;17.15;27.23
72486;BME280;60509;47.308;-122.428;2023-05-01T06:06:37;100285.37;;;17.10;27.35
72486;BME280;60509;47.308;-122.428;2023-05-01T06:09:03;100278.40;;;17.29;27.55
72486;BME280;60509;47.308;-122.428;2023-05-01T06:11:29;100277.54;;;17.30;27.58
72486;BME280;60509;47.308;-122.428;2023-05-01T06:13:55;100274.35;;;17.22;27.47
72486;BME280;60509;47.308;-122.428;2023-05-01T06:16:21;100271.90;;;17.09;27.76
72486;BME280;60509;47.308;-122.428;2023-05-01T06:18:47;100271.10;;;17.30;27.41
72486;BME280;60509;47.308;-122.428;2023-05-01T06:21:13;100276.06;;;17.10;27.49
72486;BME280;60509;47.308;-122.428;2023-05-01T06:23:39;100282.07;;;17.33;27.48
72486;BME280;60509;47.308;-122.428;2023-05-01T06:26:05;100283.80;;;17.22;27.49
72486;BME280;60509;47.308;-122.428;2023-05-01T06:28:30;100283.92;;;17.52;27.61
72486;BME280;60509;47.308;-122.428;2023-05-01T06:30:56;100282.12;;;17.12;28.35
72486;BME280;60509;47.308;-122.428;2023-05-01T06:33:22;100291.18;;;17.23;28.17
72486;BME280;60509;47.308;-122.428;2023-05-01T06:35:48;100294.09;;;16.99;28.34
72486;BME280;60509;47.308;-122.428;2023-05-01T06:38:14;100294.25;;;17.36;28.47
72486;BME280;60509;47.308;-122.428;2023-05-01T06:40:40;100296.52;;;17.23;28.85
72486;BME280;60509;47.308;-122.428;2023-05-01T06:43:06;100294.87;;;17.44;28.41
72486;BME280;60509;47.308;-122.428;2023-05-01T06:45:32;100292.88;;;17.27;28.64
72486;BME280;60509;47.308;-122.428;2023-05-01T06:47:58;100293.30;;;17.59;28.68
72486;BME280;60509;47.308;-122.428;2023-05-01T06:50:24;100287.69;;;17.43;28.43
72486;BME280;60509;47.308;-122.428;2023-05-01T06:52:50;100287.12;;;17.25;28.94
72486;BME280;60509;47.308;-122.428;2023-05-01T06:55:16;100289.08;;;17.58;28.79
72486;BME280;60509;47.308;-122.428;2023-05-01T06:57:42;100289.12;;;17.56;28.81
72486;BME280;60509;47.308;-122.428;2023-05-01T07:00:08;100293.26;;;17.24;28.68
72486;BME280;60509;47.308;-122.428;2023-05-01T07:02:33;100294.72;;;17.58;28.58
72486;BME280;60509;47.308;-122.428;2023-05-01T07:04:59;100289.64;;;17.49;28.49
72486;BME280;60509;47.308;-122.428;2023-05-01T07:07:25;100293.05;;;17.43;28.59
72486;BME280;60509;47.308;-122.428;2023-05-01T07:09:51;100298.47;;;17.33;28.50
72486;BME280;60509;47.308;-122.428;2023-05-01T07:12:17;100298.93;;;17.04;28.71
72486;BME280;60509;47.308;-122.428;2023-05-01T07:14:43;100301.98;;;17.33;28.53
72486;BME280;60509;47.308;-122.428;2023-05-01T07:17:09;100304.65;;;17.32;28.61
72486;BME280;60509;47.308;-122.428;2023-05-01T07:19:35;100304.61;;;17.40;28.52
72486;BME280;60509;47.308;-122.428;2023-05-01T07:22:01;100304.50;;;17.12;28.83
72486;BME280;60509;47.308;-122.428;2023-05-01T07:24:27;100301.48;;;16.86;29.10
72486;BME280;60509;47.308;-122.428;2023-05-01T07:26:53;100298.07;;;17.09;29.12
72486;BME280;60509;47.308;-122.428;2023-05-01T07:29:19;100294.69;;;16.87;29.14
72486;BME280;60509;47.308;-122.428;2023-05-01T07:31:46;100295.22;;;16.91;29.13
72486;BME280;60509;47.308;-122.428;2023-05-01T07:34:11;100290.51;;;17.21;28.83
72486;BME280;60509;47.308;-122.428;2023-05-01T07:36:37;100290.20;;;17.16;28.81
72486;BME280;60509;47.308;-122.428;2023-05-01T07:39:03;100290.23;;;17.07;28.79
72486;BME280;60509;47.308;-122.428;2023-05-01T07:41:29;100285.57;;;17.04;28.60
72486;BME280;60509;47.308;-122.428;2023-05-01T07:43:56;100277.84;;;17.16;28.57
72486;BME280;60509;47.308;-122.428;2023-05-01T07:46:21;100276.44;;;16.85;28.65
72486;BME280;60509;47.308;-122.428;2023-05-01T07:48:46;100279.33;;;17.17;28.40
72486;BME280;60509;47.308;-122.428;2023-05-01T07:51:13;100279.38;;;17.01;28.45
72486;BME280;60509;47.308;-122.428;2023-05-01T07:53:39;100278.45;;;16.57;28.76
72486;BME280;60509;47.308;-122.428;2023-05-01T07:56:05;100270.56;;;16.84;28.52
72486;BME280;60509;47.308;-122.428;2023-05-01T07:58:30;100268.94;;;16.71;28.59
72486;BME280;60509;47.308;-122.428;2023-05-01T08:00:56;100267.36;;;17.66;29.95
72486;BME280;60509;47.308;-122.428;2023-05-01T08:03:22;100267.94;;;17.70;31.23
72486;BME280;60509;47.308;-122.428;2023-05-01T08:05:48;100271.63;;;17.29;31.45
72486;BME280;60509;47.308;-122.428;2023-05-01T08:08:14;100272.91;;;16.96;31.50
72486;BME280;60509;47.308;-122.428;2023-05-01T08:10:40;100272.58;;;16.79;31.53
72486;BME280;60509;47.308;-122.428;2023-05-01T08:13:06;100268.97;;;16.84;31.41
72486;BME280;60509;47.308;-122.428;2023-05-01T08:15:32;100270.51;;;16.63;31.27
72486;BME280;60509;47.308;-122.428;2023-05-01T08:17:58;100268.55;;;16.85;31.14
72486;BME280;60509;47.308;-122.428;2023-05-01T08:20:23;100268.37;;;16.81;30.84
72486;BME280;60509;47.308;-122.428;2023-05-01T08:22:49;100258.77;;;16.89;30.74
72486;BME280;60509;47.308;-122.428;2023-05-01T08:25:15;100262.59;;;16.72;30.76
72486;BME280;60509;47.308;-122.428;2023-05-01T08:27:41;100267.73;;;16.97;30.25
72486;BME280;60509;47.308;-122.428;2023-05-01T08:30:08;100269.37;;;16.77;30.25
72486;BME280;60509;47.308;-122.428;2023-05-01T08:32:33;100265.80;;;16.60;30.05
72486;BME280;60509;47.308;-122.428;2023-05-01T08:34:59;100264.85;;;16.68;30.02
72486;BME280;60509;47.308;-122.428;2023-05-01T08:37:25;100261.31;;;16.58;30.05
72486;BME280;60509;47.308;-122.428;2023-05-01T08:39:51;100265.31;;;16.62;30.03
72486;BME280;60509;47.308;-122.428;2023-05-01T08:42:17;100267.11;;;17.39;29.15
72486;BME280;60509;47.308;-122.428;2023-05-01T08:44:44;100270.15;;;17.26;29.28
72486;BME280;60509;47.308;-122.428;2023-05-01T08:47:14;100265.94;;;17.31;29.34
72486;BME280;60509;47.308;-122.428;2023-05-01T08:49:35;100261.91;;;16.82;29.51
72486;BME280;60509;47.308;-122.428;2023-05-01T08:52:01;100261.07;;;16.63;29.57
72486;BME280;60509;47.308;-122.428;2023-05-01T08:54:27;100261.86;;;16.74;29.53
72486;BME280;60509;47.308;-122.428;2023-05-01T08:56:53;100259.71;;;16.90;29.38
72486;BME280;60509;47.308;-122.428;2023-05-01T08:59:18;100257.10;;;16.67;29.36
72486;BME280;60509;47.308;-122.428;2023-05-01T09:01:45;100259.83;;;16.60;29.33
72486;BME280;60509;47.308;-122.428;2023-05-01T09:04:10;100259.82;;;16.57;29.21
72486;BME280;60509;47.308;-122.428;2023-05-01T09:06:36;100258.99;;;16.59;29.12
72486;BME280;60509;47.308;-122.428;2023-05-01T09:09:02;100255.75;;;16.43;29.14
72486;BME280;60509;47.308;-122.428;2023-05-01T09:11:28;100252.49;;;16.63;28.95
72486;BME280;60509;47.308;-122.428;2023-05-01T09:13:54;100249.79;;;16.96;28.78
72486;BME280;60509;47.308;-122.428;2023-05-01T09:16:20;100242.55;;;16.46;28.95
72486;BME280;60509;47.308;-122.428;2023-05-01T09:18:46;100236.56;;;16.57;28.93
72486;BME280;60509;47.308;-122.428;2023-05-01T09:21:11;100235.46;;;17.08;28.55
72486;BME280;60509;47.308;-122.428;2023-05-01T09:23:37;100239.10;;;17.26;28.48
72486;BME280;60509;47.308;-122.428;2023-05-01T09:26:05;100235.70;;;17.07;28.65
72486;BME280;60509;47.308;-122.428;2023-05-01T09:28:46;100234.50;;;16.76;28.94
72486;BME280;60509;47.308;-122.428;2023-05-01T09:30:55;100233.53;;;16.45;29.03
72486;BME280;60509;47.308;-122.428;2023-05-01T09:33:21;100227.74;;;16.53;28.94
72486;BME280;60509;47.308;-122.428;2023-05-01T09:35:50;100220.60;;;16.62;28.83
72486;BME280;60509;47.308;-122.428;2023-05-01T09:38:17;100219.98;;;16.58;28.75
72486;BME280;60509;47.308;-122.428;2023-05-01T09:40:39;100216.65;;;16.48;28.74
72486;BME280;60509;47.308;-122.428;2023-05-01T09:43:05;100215.59;;;16.56;28.66
72486;BME280;60509;47.308;-122.428;2023-05-01T09:45:31;100216.13;;;16.32;28.79
72486;BME280;60509;47.308;-122.428;2023-05-01T09:48:07;100217.68;;;15.99;28.73
72486;BME280;60509;47.308;-122.428;2023-05-01T09:50:34;100215.10;;;16.13;28.72
72486;BME280;60509;47.308;-122.428;2023-05-01T09:52:49;100214.36;;;16.13;28.70
72486;BME280;60509;47.308;-122.428;2023-05-01T09:55:16;100212.62;;;17.20;28.13
72486;BME280;60509;47.308;-122.428;2023-05-01T09:57:41;100213.30;;;17.63;28.11
72486;BME280;60509;47.308;-122.428;2023-05-01T10:00:07;100216.12;;;17.22;28.26
72486;BME280;60509;47.308;-122.428;2023-05-01T10:02:33;100214.54;;;16.89;28.59
72486;BME280;60509;47.308;-122.428;2023-05-01T10:04:59;100214.05;;;16.32;28.74
72486;BME280;60509;47.308;-122.428;2023-05-01T10:07:25;100216.31;;;16.40;28.71
72486;BME280;60509;47.308;-122.428;2023-05-01T10:09:51;100213.29;;;16.28;28.65
72486;BME280;60509;47.308;-122.428;2023-05-01T10:12:23;100215.73;;;16.19;28.64
72486;BME280;60509;47.308;-122.428;2023-05-01T10:14:51;100218.02;;;16.29;28.52
72486;BME280;60509;47.308;-122.428;2023-05-01T10:17:17;100214.69;;;16.36;28.39
72486;BME280;60509;47.308;-122.428;2023-05-01T10:19:34;100207.33;;;16.12;28.51
72486;BME280;60509;47.308;-122.428;2023-05-01T10:22:00;100204.83;;;16.42;28.36
72486;BME280;60509;47.308;-122.428;2023-05-01T10:24:26;100208.22;;;16.15;28.41
72486;BME280;60509;47.308;-122.428;2023-05-01T10:26:52;100209.85;;;16.37;28.37
72486;BME280;60509;47.308;-122.428;2023-05-01T10:29:19;100210.89;;;16.84;28.25
72486;BME280;60509;47.308;-122.428;2023-05-01T10:31:44;100209.71;;;17.23;27.94
72486;BME280;60509;47.308;-122.428;2023-05-01T10:34:10;100207.80;;;17.17;28.10
72486;BME280;60509;47.308;-122.428;2023-05-01T10:36:41;100207.66;;;16.71;28.46
72486;BME280;60509;47.308;-122.428;2023-05-01T10:39:01;100205.06;;;16.83;28.63
72486;BME280;60509;47.308;-122.428;2023-05-01T10:42:02;100206.77;;;16.67;28.71
72486;BME280;60509;47.308;-122.428;2023-05-01T10:44:20;100201.97;;;16.79;28.51
72486;BME280;60509;47.308;-122.428;2023-05-01T10:46:27;100199.87;;;16.33;28.68
72486;BME280;60509;47.308;-122.428;2023-05-01T10:48:53;100200.80;;;16.57;28.49
72486;BME280;60509;47.308;-122.428;2023-05-01T10:51:13;100197.21;;;16.36;28.31
72486;BME280;60509;47.308;-122.428;2023-05-01T10:53:37;100200.06;;;16.27;28.40
72486;BME280;60509;47.308;-122.428;2023-05-01T10:56:03;100203.48;;;16.28;28.37
72486;BME280;60509;47.308;-122.428;2023-05-01T10:59:02;100206.16;;;15.93;28.52
72486;BME280;60509;47.308;-122.428;2023-05-01T11:01:27;100207.09;;;16.39;28.54
72486;BME280;60509;47.308;-122.428;2023-05-01T11:03:37;100207.98;;;16.00;28.29
72486;BME280;60509;47.308;-122.428;2023-05-01T11:06:19;100206.81;;;17.09;27.92
72486;BME280;60509;47.308;-122.428;2023-05-01T11:08:45;100206.11;;;16.88;28.05
72486;BME280;60509;47.308;-122.428;2023-05-01T11:10:38;100205.08;;;16.95;28.42
72486;BME280;60509;47.308;-122.428;2023-05-01T11:13:03;100207.59;;;16.21;28.61
72486;BME280;60509;47.308;-122.428;2023-05-01T11:15:30;100205.27;;;16.14;28.72
72486;BME280;60509;47.308;-122.428;2023-05-01T11:17:53;100205.37;;;16.47;28.59
72486;BME280;60509;47.308;-122.428;2023-05-01T11:20:51;100200.40;;;16.32;28.47
72486;BME280;60509;47.308;-122.428;2023-05-01T11:22:45;100198.94;;;16.31;28.39
72486;BME280;60509;47.308;-122.428;2023-05-01T11:25:19;100195.10;;;16.11;28.40
72486;BME280;60509;47.308;-122.428;2023-05-01T11:27:35;100191.38;;;16.15;28.32
72486;BME280;60509;47.308;-122.428;2023-05-01T11:30:01;100188.07;;;16.22;28.49
72486;BME280;60509;47.308;-122.428;2023-05-01T11:32:28;100185.45;;;15.91;28.51
72486;BME280;60509;47.308;-122.428;2023-05-01T11:34:53;100189.52;;;16.07;28.40
72486;BME280;60509;47.308;-122.428;2023-05-01T11:37:19;100187.10;;;16.19;28.36
72486;BME280;60509;47.308;-122.428;2023-05-01T11:39:49;100183.88;;;16.91;27.97
72486;BME280;60509;47.308;-122.428;2023-05-01T11:42:11;100180.55;;;16.89;27.97
72486;BME280;60509;47.308;-122.428;2023-05-01T11:44:37;100174.26;;;16.74;28.10
72486;BME280;60509;47.308;-122.428;2023-05-01T11:47:03;100172.31;;;16.63;28.43
72486;BME280;60509;47.308;-122.428;2023-05-01T11:49:29;100176.53;;;16.31;28.54
72486;BME280;60509;47.308;-122.428;2023-05-01T11:51:56;100178.48;;;16.23;28.54
72486;BME280;60509;47.308;-122.428;2023-05-01T11:54:21;100180.27;;;16.36;28.45
72486;BME280;60509;47.308;-122.428;2023-05-01T11:56:47;100181.71;;;16.16;28.53
72486;BME280;60509;47.308;-122.428;2023-05-01T11:59:14;100185.55;;;15.65;28.41
72486;BME280;60509;47.308;-122.428;2023-05-01T12:01:40;100181.98;;;16.15;28.30
72486;BME280;60509;47.308;-122.428;2023-05-01T12:04:05;100176.63;;;16.34;28.25
72486;BME280;60509;47.308;-122.428;2023-05-01T12:06:39;100175.23;;;16.66;28.30
72486;BME280;60509;47.308;-122.428;2023-05-01T12:08:56;100175.91;;;16.21;28.24
72486;BME280;60509;47.308;-122.428;2023-05-01T12:11:22;100174.14;;;16.33;28.14
72486;BME280;60509;47.308;-122.428;2023-05-01T12:13:48;100171.69;;;16.82;27.88